Time;durP1;ratioP1;P1;durP2;ratioP2;P2;SDS_P1;SDS_P2;PMS_P1;PMS_P2;Temp;Humidity;BMP_temperature;BMP_pressure;BME280_temperature;BME280_humidity;BME280_pressure;Samples;Min_cycle;Max_cycle;Signal;HPM_P1;HPM_P2
2023/10/13 00:00:40;;;;;;;358.02;62.22;;;14.00;99.90;;;;;;4969513;28;20065;-83
2023/10/13 00:03:08;;;;;;;245.57;56.50;;;14.10;99.90;;;;;;5000827;28;20053;-84
2023/10/13 00:05:34;;;;;;;299.65;57.58;;;14.10;99.90;;;;;;4959213;28;20064;-81
2023/10/13 00:08:02;;;;;;;262.38;59.92;;;14.20;99.90;;;;;;4962190;28;20049;-82
2023/10/13 00:10:31;;;;;;;308.80;61.17;;;14.20;99.90;;;;;;4970205;28;20070;-82
2023/10/13 00:13:12;;;;;;;271.33;61.08;;;14.30;99.90;;;;;;4979168;28;20092;-80
2023/10/13 00:15:57;;;;;;;281.93;59.17;;;14.30;99.90;;;;;;5011050;28;20057;-81
2023/10/13 00:18:34;;;;;;;253.63;58.45;;;14.30;99.90;;;;;;4988212;28;20053;-84
2023/10/13 00:21:12;;;;;;;314.98;59.88;;;14.40;99.90;;;;;;4987456;28;20054;-82
2023/10/13 00:23:55;;;;;;;336.33;62.30;;;14.40;99.90;;;;;;4985331;28;20046;-82
2023/10/13 00:26:24;;;;;;;;;;;14.50;99.90;;;;;;4988116;28;20056;-84
2023/10/13 00:28:58;;;;;;;252.70;55.55;;;14.50;99.90;;;;;;4992492;28;19926;-81
2023/10/13 00:31:33;;;;;;;259.08;60.10;;;14.50;99.90;;;;;;4987453;28;20049;-82
2023/10/13 00:34:09;;;;;;;282.27;56.75;;;14.60;99.90;;;;;;4997197;28;20723;-83
2023/10/13 00:36:35;;;;;;;249.35;58.40;;;14.60;99.90;;;;;;5013306;28;20051;-83
2023/10/13 00:39:03;;;;;;;252.68;58.30;;;14.60;99.90;;;;;;4985580;28;20061;-81
2023/10/13 00:44:16;;;;;;;295.55;61.40;;;14.70;99.90;;;;;;4986789;28;20054;-81
2023/10/13 00:46:45;;;;;;;312.00;60.83;;;14.70;99.90;;;;;;4993757;28;20053;-83
2023/10/13 00:49:15;;;;;;;282.25;56.85;;;14.70;99.90;;;;;;4976861;28;20050;-82
2023/10/13 00:51:47;;;;;;;262.38;57.67;;;14.80;99.90;;;;;;5012857;28;20082;-86
2023/10/13 00:54:13;;;;;;;176.45;56.08;;;14.80;99.90;;;;;;4978925;28;20509;-83
2023/10/13 00:56:48;;;;;;;235.98;61.95;;;14.80;99.90;;;;;;4990511;28;20060;-79
2023/10/13 00:59:16;;;;;;;231.00;59.17;;;14.90;99.90;;;;;;4991091;28;20515;-84
2023/10/13 01:01:45;;;;;;;197.50;53.95;;;14.90;99.90;;;;;;4996216;28;20572;-82
2023/10/13 01:04:15;;;;;;;222.13;55.47;;;14.80;99.90;;;;;;4993450;28;20192;-82
2023/10/13 01:06:40;;;;;;;217.63;57.72;;;14.90;99.90;;;;;;4993941;28;20154;-82
2023/10/13 01:09:12;;;;;;;191.02;56.55;;;14.90;99.90;;;;;;4990520;28;20081;-82
2023/10/13 01:11:44;;;;;;;233.80;52.50;;;15.00;99.90;;;;;;4990081;28;20045;-78
2023/10/13 01:14:11;;;;;;;252.13;55.08;;;15.00;99.90;;;;;;4990475;28;20560;-82
2023/10/13 01:16:40;;;;;;;200.88;52.28;;;15.10;99.90;;;;;;4994802;28;20497;-80
2023/10/13 01:19:06;;;;;;;210.82;52.38;;;15.10;99.90;;;;;;4981213;28;20049;-82
2023/10/13 01:21:33;;;;;;;201.68;52.38;;;15.10;99.90;;;;;;4987643;28;20079;-82
2023/10/13 01:24:01;;;;;;;199.52;51.42;;;15.10;99.90;;;;;;4978294;28;20136;-82
2023/10/13 01:26:27;;;;;;;191.32;47.78;;;15.10;99.90;;;;;;4984590;28;20049;-83
2023/10/13 01:28:59;;;;;;;191.15;49.05;;;15.20;99.90;;;;;;4981719;28;20093;-88
2023/10/13 01:31:29;;;;;;;;;;;15.20;99.90;;;;;;4990936;28;20065;-79
2023/10/13 01:33:58;;;;;;;198.15;48.25;;;15.20;99.90;;;;;;4986494;28;19952;-81
2023/10/13 01:36:28;;;;;;;183.27;47.10;;;15.20;99.90;;;;;;4993154;28;20050;-86
2023/10/13 01:38:54;;;;;;;208.50;49.63;;;15.20;99.90;;;;;;4979960;28;20057;-81
2023/10/13 01:41:23;;;;;;;162.18;45.92;;;15.20;99.90;;;;;;4993431;28;20057;-84
2023/10/13 01:43:49;;;;;;;247.82;52.50;;;15.20;99.90;;;;;;4979617;28;20345;-79
2023/10/13 01:46:19;;;;;;;192.50;50.35;;;15.20;99.90;;;;;;4986454;28;20079;-83
2023/10/13 01:48:46;;;;;;;223.80;52.58;;;15.20;99.90;;;;;;4987988;28;20305;-81
2023/10/13 01:51:12;;;;;;;182.48;50.72;;;15.20;99.90;;;;;;4995989;28;20059;-85
2023/10/13 01:53:41;;;;;;;202.25;51.78;;;15.20;99.90;;;;;;4986905;28;20115;-83
2023/10/13 01:56:12;;;;;;;215.10;51.58;;;15.20;99.90;;;;;;4992421;28;20817;-82
2023/10/13 01:58:42;;;;;;;197.95;53.00;;;12.30;99.90;;;;;;4987658;28;20062;-79
2023/10/13 02:01:09;;;;;;;191.75;52.03;;;15.30;99.90;;;;;;4995838;28;20053;-84
2023/10/13 02:03:41;;;;;;;214.88;54.15;;;15.30;99.90;;;;;;5003606;28;20111;-85
2023/10/13 02:06:07;;;;;;;;;;;15.30;99.90;;;;;;4997403;28;20136;-85
2023/10/13 02:08:40;;;;;;;216.73;53.55;;;15.30;99.90;;;;;;4996172;28;19956;-81
2023/10/13 02:11:07;;;;;;;229.25;54.88;;;15.30;99.90;;;;;;4986607;28;20048;-83
2023/10/13 02:13:32;;;;;;;228.57;58.35;;;15.40;99.90;;;;;;4983021;28;20081;-89
2023/10/13 02:16:03;;;;;;;231.40;55.40;;;15.40;99.90;;;;;;4988092;28;20141;-82
2023/10/13 02:18:41;;;;;;;314.35;58.92;;;15.40;99.90;;;;;;4992887;28;20061;-84
2023/10/13 02:21:14;;;;;;;263.48;57.70;;;15.40;99.90;;;;;;4993020;28;20049;-83
2023/10/13 02:23:43;;;;;;;255.05;55.05;;;15.40;99.90;;;;;;5010121;28;20469;-85
2023/10/13 02:26:15;;;;;;;216.75;55.13;;;15.40;99.90;;;;;;4998674;28;20056;-83
2023/10/13 02:28:41;;;;;;;244.17;56.63;;;15.40;99.90;;;;;;5018746;28;20077;-82
2023/10/13 02:31:07;;;;;;;256.40;55.72;;;15.40;99.90;;;;;;4987866;28;20137;-81
2023/10/13 02:33:34;;;;;;;247.95;55.85;;;15.40;99.90;;;;;;5015866;28;20148;-84
2023/10/13 02:36:05;;;;;;;251.55;54.00;;;15.40;99.90;;;;;;4999011;28;20053;-80
2023/10/13 02:38:45;;;;;;;202.23;53.10;;;15.40;99.90;;;;;;4995409;28;20049;-85
2023/10/13 02:41:25;;;;;;;238.18;53.67;;;15.40;99.90;;;;;;5005988;28;20092;-78
2023/10/13 02:43:52;;;;;;;270.38;57.17;;;15.50;99.90;;;;;;4999794;28;20099;-81
2023/10/13 02:46:22;;;;;;;200.50;52.35;;;15.40;99.90;;;;;;4997876;28;20551;-83
2023/10/13 02:48:53;;;;;;;260.20;53.33;;;15.40;99.90;;;;;;4987567;28;20183;-85
2023/10/13 02:51:35;;;;;;;170.98;50.28;;;15.40;99.90;;;;;;4978184;28;20119;-83
2023/10/13 02:54:02;;;;;;;156.45;49.42;;;15.50;99.90;;;;;;4985906;28;20064;-79
2023/10/13 02:56:29;;;;;;;203.52;52.08;;;15.50;99.90;;;;;;4998718;28;20562;-74
2023/10/13 02:59:04;;;;;;;179.15;48.75;;;15.50;99.90;;;;;;5013796;28;20042;-79
2023/10/13 03:01:33;;;;;;;199.60;50.78;;;13.90;99.90;;;;;;4981705;28;20060;-83
2023/10/13 03:04:00;;;;;;;180.55;50.15;;;15.50;99.90;;;;;;4994827;28;20126;-76
2023/10/13 03:06:33;;;;;;;223.15;52.85;;;15.50;99.90;;;;;;4992331;28;20042;-75
2023/10/13 03:09:13;;;;;;;197.00;49.03;;;15.50;99.90;;;;;;4985352;28;20860;-81
2023/10/13 03:11:47;;;;;;;188.88;49.22;;;15.50;99.90;;;;;;4988678;28;20053;-83
2023/10/13 03:14:23;;;;;;;181.88;49.08;;;15.50;99.90;;;;;;5012029;28;20077;-83
2023/10/13 03:17:08;;;;;;;198.23;49.42;;;15.50;99.90;;;;;;4988490;28;20065;-80
2023/10/13 03:19:36;;;;;;;213.15;50.33;;;15.50;99.90;;;;;;4973551;28;20042;-81
2023/10/13 03:22:11;;;;;;;176.52;48.20;;;15.50;99.90;;;;;;4991541;28;20049;-83
2023/10/13 03:24:59;;;;;;;239.48;49.10;;;15.50;99.90;;;;;;4959690;28;20137;-80
2023/10/13 03:27:39;;;;;;;137.70;43.28;;;15.50;99.90;;;;;;4956956;28;20068;-80
2023/10/13 03:30:13;;;;;;;164.32;44.38;;;15.50;99.90;;;;;;4949426;28;20069;-80
2023/10/13 03:32:43;;;;;;;202.85;47.17;;;15.60;99.90;;;;;;4960617;28;20466;-81
2023/10/13 03:35:24;;;;;;;175.75;44.53;;;15.50;99.90;;;;;;4962195;28;20484;-81
2023/10/13 03:37:54;;;;;;;194.80;46.80;;;15.50;99.90;;;;;;4966799;28;20137;-79
2023/10/13 03:43:10;;;;;;;200.27;46.50;;;15.50;99.90;;;;;;4973032;28;20080;-80
2023/10/13 03:45:47;;;;;;;191.88;44.03;;;15.60;99.90;;;;;;4970342;28;20054;-82
2023/10/13 03:53:36;;;;;;;182.05;41.83;;;15.60;99.90;;;;;;4969440;28;20161;-80
2023/10/13 03:56:12;;;;;;;149.50;38.65;;;16.40;99.90;;;;;;4980977;28;20084;-82
2023/10/13 03:58:48;;;;;;;158.23;39.80;;;15.50;99.90;;;;;;4985783;28;20504;-81
2023/10/13 04:01:17;;;;;;;196.55;39.95;;;15.60;99.90;;;;;;5010060;28;20053;-82
2023/10/13 04:03:57;;;;;;;137.98;37.70;;;15.60;99.90;;;;;;4996398;28;20046;-84
2023/10/13 04:17:23;;;;;;;162.90;37.83;;;15.60;99.90;;;;;;4970069;28;20544;-82
2023/10/13 04:41:43;;;;;;;134.77;39.08;;;15.60;99.90;;;;;;4944486;28;20054;-83
2023/10/13 04:47:07;;;;;;;88.95;35.35;;;15.60;99.90;;;;;;4968678;28;20066;-78
2023/10/13 06:30:04;;;;;;;46.65;17.48;;;15.40;99.90;;;;;;5001084;28;20054;-79
2023/10/13 06:32:33;;;;;;;47.03;17.98;;;15.40;99.90;;;;;;4980100;28;20061;-84
2023/10/13 06:35:05;;;;;;;25.73;13.05;;;15.40;99.90;;;;;;4974151;28;20055;-87
2023/10/13 06:37:32;;;;;;;38.08;15.90;;;15.40;99.90;;;;;;4957320;28;20061;-76
2023/10/13 06:40:22;;;;;;;29.40;15.35;;;15.40;99.90;;;;;;4974162;28;20054;-78
2023/10/13 06:42:55;;;;;;;41.78;16.73;;;15.40;99.90;;;;;;4955083;28;20058;-79
2023/10/13 06:45:21;;;;;;;51.28;17.40;;;15.50;99.90;;;;;;4957463;28;20073;-82
2023/10/13 06:47:52;;;;;;;32.90;14.80;;;15.50;99.90;;;;;;4957292;28;20540;-78
2023/10/13 06:50:24;;;;;;;33.53;13.73;;;14.00;99.90;;;;;;4958981;28;20299;-78
2023/10/13 06:52:50;;;;;;;35.20;14.88;;;15.50;99.90;;;;;;4973902;28;20555;-81
2023/10/13 06:55:58;;;;;;;33.47;13.55;;;15.50;99.90;;;;;;4957169;28;20576;-81
2023/10/13 06:58:06;;;;;;;24.52;12.70;;;15.50;99.90;;;;;;4943888;28;20854;-79
2023/10/13 07:00:37;;;;;;;30.10;13.73;;;15.60;99.90;;;;;;4956615;28;20161;-83
2023/10/13 07:03:09;;;;;;;37.42;14.50;;;15.60;99.90;;;;;;4973524;28;20116;-88
2023/10/13 07:05:39;;;;;;;28.83;12.95;;;15.60;99.90;;;;;;4956708;28;20724;-84
2023/10/13 07:08:06;;;;;;;22.98;11.30;;;15.60;99.90;;;;;;4957445;28;20054;-84
2023/10/13 07:10:48;;;;;;;26.98;12.88;;;15.70;99.90;;;;;;4957918;28;20054;-81
2023/10/13 07:13:16;;;;;;;;;;;16.40;99.90;;;;;;4962882;28;20065;-85
2023/10/13 07:15:45;;;;;;;38.50;13.38;;;15.80;99.90;;;;;;4980882;28;19925;-82
2023/10/13 07:18:13;;;;;;;32.40;12.68;;;15.80;99.90;;;;;;4966823;28;20549;-81
2023/10/13 07:20:43;;;;;;;25.27;11.77;;;15.80;99.90;;;;;;4977430;28;20050;-81
2023/10/13 07:23:20;;;;;;;23.52;12.23;;;13.80;99.90;;;;;;4982030;28;20588;-84
2023/10/13 07:26:02;;;;;;;23.25;11.52;;;15.80;99.90;;;;;;4997855;28;20060;-81
2023/10/13 07:28:30;;;;;;;18.50;10.63;;;15.80;99.90;;;;;;5003378;28;20067;-80
2023/10/13 07:33:26;;;;;;;22.45;12.23;;;15.80;99.90;;;;;;4991665;28;20066;-81
2023/10/13 07:36:15;;;;;;;25.27;12.40;;;15.80;99.90;;;;;;4971067;28;20054;-78
2023/10/13 07:38:48;;;;;;;20.52;10.85;;;15.80;99.90;;;;;;4995321;28;20049;-82
2023/10/13 07:41:21;;;;;;;29.83;12.63;;;15.80;99.90;;;;;;4979448;28;20041;-84
2023/10/13 07:43:50;;;;;;;33.65;14.93;;;15.80;99.90;;;;;;4990880;28;20041;-82
2023/10/13 07:46:16;;;;;;;31.80;13.55;;;15.80;99.90;;;;;;4994992;28;20500;-79
2023/10/13 07:48:45;;;;;;;30.17;13.93;;;15.80;99.90;;;;;;4981462;28;20053;-82
2023/10/13 07:51:16;;;;;;;30.80;14.43;;;15.80;99.90;;;;;;4989241;28;20052;-82
2023/10/13 07:53:43;;;;;;;28.05;13.07;;;15.80;99.90;;;;;;4984164;28;20050;-79
2023/10/13 07:56:12;;;;;;;28.65;13.63;;;15.80;99.90;;;;;;4986783;28;20081;-81
2023/10/13 07:58:52;;;;;;;34.75;14.35;;;15.80;99.90;;;;;;5002068;28;20053;-80
2023/10/13 08:01:19;;;;;;;30.85;13.25;;;15.80;99.90;;;;;;4996678;28;20115;-86
2023/10/13 08:03:57;;;;;;;32.63;14.93;;;14.70;99.90;;;;;;5009685;28;20416;-83
2023/10/13 08:06:26;;;;;;;35.10;14.82;;;15.80;99.90;;;;;;4996967;28;20061;-81
2023/10/13 08:08:59;;;;;;;43.88;15.70;;;15.80;99.90;;;;;;4988939;28;20049;-80
2023/10/13 08:11:30;;;;;;;39.75;14.35;;;15.80;99.90;;;;;;4992212;28;20123;-77
2023/10/13 08:13:59;;;;;;;50.20;16.30;;;15.80;99.90;;;;;;4992258;28;20060;-80
2023/10/13 08:17:04;;;;;;;35.13;13.43;;;15.90;99.90;;;;;;4995859;28;20057;-80
2023/10/13 08:19:32;;;;;;;28.70;13.00;;;15.90;99.90;;;;;;4989410;28;20064;-83
2023/10/13 08:48:15;;;;;;;30.00;14.85;;;16.10;99.90;;;;;;5012038;23;20048;-88
2023/10/13 09:09:39;;;;;;;36.10;16.42;;;16.40;99.90;;;;;;5004168;28;20396;-86
2023/10/13 09:12:12;;;;;;;31.60;15.90;;;14.20;99.90;;;;;;5014048;28;20041;-87
2023/10/13 09:14:46;;;;;;;26.58;15.43;;;16.60;99.90;;;;;;5000232;28;20041;-86
2023/10/13 09:17:34;;;;;;;31.83;16.25;;;16.70;99.90;;;;;;5018215;28;20374;-89
2023/10/13 09:20:24;;;;;;;38.00;17.92;;;17.20;99.90;;;;;;5008008;28;20041;-94
2023/10/13 09:23:45;;;;;;;33.58;15.68;;;16.80;99.90;;;;;;5006362;28;20083;-86
2023/10/13 09:25:37;;;;;;;27.75;14.60;;;13.80;99.90;;;;;;4991439;28;20550;-92
2023/10/13 09:28:10;;;;;;;36.10;17.92;;;16.90;99.90;;;;;;5004621;28;20056;-85
2023/10/13 09:30:52;;;;;;;37.80;16.40;;;18.90;99.90;;;;;;5005021;28;20045;-82
2023/10/13 09:33:47;;;;;;;33.00;15.13;;;16.90;99.90;;;;;;5008064;28;20037;-86
2023/10/13 09:36:16;;;;;;;37.15;17.95;;;16.90;99.90;;;;;;5007387;28;20030;-90
2023/10/13 09:39:07;;;;;;;28.15;15.00;;;17.20;99.90;;;;;;4988859;28;20037;-86
2023/10/13 09:41:32;;;;;;;27.73;15.43;;;17.00;99.90;;;;;;5005979;28;20405;-86
2023/10/13 09:43:58;;;;;;;27.95;15.38;;;17.00;99.90;;;;;;5014407;28;20051;-88
2023/10/13 09:46:28;;;;;;;25.98;14.00;;;17.10;99.90;;;;;;5002641;28;20076;-83
2023/10/13 09:49:15;;;;;;;30.05;15.77;;;17.10;99.90;;;;;;5002611;28;20593;-82
2023/10/13 09:51:45;;;;;;;26.67;12.20;;;17.10;99.90;;;;;;5006221;28;20644;-88
2023/10/13 09:54:20;;;;;;;24.60;13.57;;;17.20;99.90;;;;;;4988757;28;20171;-89
2023/10/13 09:57:01;;;;;;;27.05;13.77;;;17.40;99.90;;;;;;5002687;28;20103;-88
2023/10/13 09:59:52;;;;;;;27.60;13.77;;;17.50;99.90;;;;;;4969248;28;20040;-86
2023/10/13 10:02:25;;;;;;;24.25;11.05;;;16.60;99.90;;;;;;4998210;28;20460;-88
2023/10/13 10:05:12;;;;;;;27.35;11.93;;;17.50;99.90;;;;;;4989847;28;20112;-84
2023/10/13 10:07:39;;;;;;;22.38;11.27;;;17.60;99.90;;;;;;4984435;28;20041;-85
2023/10/13 10:10:08;;;;;;;24.98;14.20;;;17.60;99.90;;;;;;5001394;28;20044;-83
2023/10/13 10:12:50;;;;;;;19.83;10.50;;;17.70;99.90;;;;;;5003680;28;20049;-84
2023/10/13 10:15:43;;;;;;;21.48;11.10;;;17.80;99.90;;;;;;4999997;28;20120;-89
2023/10/13 10:18:29;;;;;;;20.98;10.68;;;17.80;99.90;;;;;;4997001;28;20038;-81
2023/10/13 10:21:07;;;;;;;19.27;9.77;;;17.90;99.90;;;;;;4981768;28;20049;-84
2023/10/13 10:23:39;;;;;;;20.50;10.52;;;17.90;99.90;;;;;;4999773;28;20116;-85
2023/10/13 10:26:20;;;;;;;17.00;9.35;;;18.00;99.90;;;;;;4988506;28;20508;-87
2023/10/13 10:28:46;;;;;;;18.55;8.57;;;18.00;99.90;;;;;;4987533;28;20150;-85
2023/10/13 10:31:14;;;;;;;19.23;9.25;;;18.20;99.90;;;;;;5005166;28;20045;-88
2023/10/13 10:33:41;;;;;;;17.80;8.57;;;18.30;99.90;;;;;;4980424;28;20044;-85
2023/10/13 10:36:14;;;;;;;20.95;8.98;;;18.40;99.90;;;;;;4984824;28;20044;-83
2023/10/13 10:38:53;;;;;;;19.08;7.78;;;18.50;99.90;;;;;;4991367;28;20087;-84
2023/10/13 10:41:38;;;;;;;15.70;7.72;;;18.60;99.90;;;;;;5000208;28;20041;-85
2023/10/13 10:44:26;;;;;;;20.90;7.40;;;18.60;99.90;;;;;;5000349;28;20041;-89
2023/10/13 10:46:52;;;;;;;21.75;8.23;;;18.80;99.90;;;;;;5001389;28;20041;-84
2023/10/13 10:49:27;;;;;;;20.25;8.70;;;19.00;99.90;;;;;;4996107;28;20783;-84
2023/10/13 10:52:43;;;;;;;20.55;6.80;;;19.50;99.90;;;;;;4985573;28;20133;-90
2023/10/13 10:55:55;;;;;;;13.77;6.10;;;16.50;99.90;;;;;;4951942;28;20114;-86
2023/10/13 10:58:32;;;;;;;16.15;6.78;;;19.60;99.90;;;;;;4940320;28;20054;-81
2023/10/13 11:01:10;;;;;;;16.70;7.15;;;19.90;99.90;;;;;;4948854;28;20055;-82
2023/10/13 11:03:41;;;;;;;20.60;6.43;;;19.20;99.90;;;;;;4945277;28;20863;-84
2023/10/13 11:06:18;;;;;;;14.75;5.90;;;19.30;99.90;;;;;;4933770;28;20070;-87
2023/10/13 11:08:51;;;;;;;16.90;6.72;;;18.50;99.90;;;;;;4966699;28;20059;-83
2023/10/13 11:11:30;;;;;;;15.05;5.78;;;20.60;99.90;;;;;;4944028;28;20098;-88
2023/10/13 11:14:13;;;;;;;12.57;5.43;;;19.30;99.90;;;;;;4950785;28;20046;-88
2023/10/13 11:23:29;;;;;;;16.52;5.85;;;20.70;99.90;;;;;;4957735;28;20105;-83
2023/10/13 11:26:01;;;;;;;21.23;7.43;;;19.00;99.90;;;;;;4936496;28;20107;-83
2023/10/13 11:29:13;;;;;;;21.45;6.30;;;18.90;99.90;;;;;;4979333;28;20075;-89
2023/10/13 11:31:41;;;;;;;17.40;6.72;;;20.50;99.90;;;;;;4974900;28;20050;-85
2023/10/13 11:34:16;;;;;;;13.73;5.43;;;19.30;99.90;;;;;;4973634;28;20074;-86
2023/10/13 11:40:44;;;;;;;14.57;6.38;;;17.00;99.90;;;;;;4992280;28;20049;-84
2023/10/13 11:47:16;;;;;;;11.02;5.65;;;17.00;99.90;;;;;;4980179;28;20049;-84
2023/10/13 11:50:05;;;;;;;15.63;5.30;;;18.20;99.90;;;;;;4974724;28;20054;-84
2023/10/13 11:52:36;;;;;;;13.18;6.22;;;20.60;99.90;;;;;;4965456;28;20062;-89
2023/10/13 11:55:42;;;;;;;14.83;5.60;;;19.20;99.90;;;;;;4957518;28;20089;-85
2023/10/13 12:16:19;;;;;;;16.15;5.93;;;20.10;99.90;;;;;;4844931;29;20535;-89
2023/10/13 12:22:55;;;;;;;14.48;6.10;;;17.90;99.90;;;;;;4955211;28;20034;-85
2023/10/13 12:26:32;;;;;;;15.77;6.30;;;18.90;99.90;;;;;;4954191;28;20130;-87
2023/10/13 13:03:32;;;;;;;18.52;7.07;;;17.70;99.90;;;;;;4887094;29;20201;-87
2023/10/13 13:06:53;;;;;;;17.75;7.13;;;17.30;99.90;;;;;;4863038;29;20107;-90
2023/10/13 13:09:25;;;;;;;15.07;6.90;;;21.10;99.90;;;;;;4869041;29;20044;-87
2023/10/13 13:11:57;;;;;;;20.98;6.80;;;18.80;99.90;;;;;;4917756;28;20060;-84
2023/10/13 13:14:28;;;;;;;19.63;6.47;;;18.80;99.90;;;;;;5001463;28;20049;-87
2023/10/13 13:24:29;;;;;;;14.00;6.90;;;17.00;99.90;;;;;;4978325;28;20077;-90
2023/10/13 13:27:41;;;;;;;;;;;;;;;;;;;;;
2023/10/13 13:37:42;;;;;;;24.75;8.68;;;19.00;99.90;;;;;;4949850;28;20034;-89
2023/10/13 13:56:28;;;;;;;19.55;8.52;;;19.90;99.90;;;;;;4955350;28;20078;-90
2023/10/13 14:07:24;;;;;;;23.90;9.35;;;19.40;99.90;;;;;;4894111;28;20604;-90
2023/10/13 14:17:57;;;;;;;26.50;10.85;;;17.50;99.90;;;;;;4946171;28;20040;-83
2023/10/13 14:24:27;;;;;;;26.10;11.18;;;18.00;99.90;;;;;;4954504;28;20068;-85
2023/10/13 14:30:31;;;;;;;25.02;10.15;;;18.00;99.90;;;;;;4999407;28;20049;-84
2023/10/13 14:33:58;;;;;;;20.08;9.38;;;15.60;99.90;;;;;;4981118;28;20053;-86
2023/10/13 14:40:34;;;;;;;27.00;10.95;;;16.50;99.90;;;;;;4926348;29;20575;-84
2023/10/13 14:44:05;;;;;;;23.63;10.82;;;16.20;99.90;;;;;;4918804;29;20051;-86
2023/10/13 14:46:31;;;;;;;18.92;11.50;;;17.60;99.90;;;;;;4853075;29;20167;-87
2023/10/13 14:49:07;;;;;;;27.23;10.55;;;17.50;99.90;;;;;;4907374;28;20055;-86
2023/10/13 15:00:22;;;;;;;19.63;9.43;;;17.60;99.90;;;;;;4962036;28;20059;-84
2023/10/13 15:03:25;;;;;;;18.98;9.80;;;18.10;99.90;;;;;;4910927;29;20048;-86
2023/10/13 15:06:35;;;;;;;20.67;10.88;;;19.30;99.90;;;;;;4945288;28;20051;-83
2023/10/13 15:09:29;;;;;;;20.92;8.93;;;19.30;99.90;;;;;;4585981;28;10000900;-84
2023/10/13 15:16:16;;;;;;;29.85;13.57;;;17.40;99.90;;;;;;4555179;29;10001093;-85
2023/10/13 15:19:23;;;;;;;27.40;12.30;;;19.00;99.90;;;;;;4539399;29;10001682;-88
2023/10/13 15:22:34;;;;;;;29.52;13.13;;;15.30;99.90;;;;;;4880482;29;20414;-84
2023/10/13 15:28:30;;;;;;;32.72;14.90;;;16.90;99.90;;;;;;4975385;28;20046;-88
2023/10/13 15:52:56;;;;;;;32.65;15.82;;;13.40;99.90;;;;;;4944133;28;20079;-90
2023/10/13 15:59:15;;;;;;;31.40;15.98;;;14.90;99.90;;;;;;4902426;29;20055;-89
2023/10/13 16:01:41;;;;;;;33.55;16.80;;;16.80;99.90;;;;;;4924294;28;20480;-87
2023/10/13 16:08:34;;;;;;;29.67;14.55;;;15.30;99.90;;;;;;4962276;28;20080;-86
2023/10/13 16:25:58;;;;;;;25.40;12.35;;;16.50;99.90;;;;;;4980229;28;20081;-89
2023/10/13 16:28:35;;;;;;;23.90;12.48;;;14.60;99.90;;;;;;4964945;28;20127;-89
2023/10/13 16:31:27;;;;;;;24.52;11.18;;;14.40;99.90;;;;;;4990429;28;20049;-91
2023/10/13 16:41:31;;;;;;;17.63;8.13;;;16.50;99.90;;;;;;4700461;22;10002233;-89
2023/10/13 16:44:00;;;;;;;25.30;8.70;;;16.50;99.90;;;;;;4969369;28;20451;-82
2023/10/13 16:46:29;;;;;;;16.55;8.10;;;16.50;99.90;;;;;;4971280;28;20053;-83
2023/10/13 16:48:56;;;;;;;18.38;7.78;;;16.50;99.90;;;;;;4985255;28;20052;-83
2023/10/13 16:51:22;;;;;;;20.80;8.82;;;16.50;99.90;;;;;;4979597;28;20122;-79
2023/10/13 16:53:50;;;;;;;18.00;9.45;;;16.50;99.90;;;;;;4983841;28;20048;-78
2023/10/13 16:56:17;;;;;;;19.13;7.95;;;16.50;99.90;;;;;;4983885;28;20131;-83
2023/10/13 16:58:44;;;;;;;25.58;11.43;;;15.30;99.90;;;;;;4986881;28;20045;-85
2023/10/13 17:01:14;;;;;;;28.00;12.85;;;16.50;99.90;;;;;;4959182;28;20072;-83
2023/10/13 17:03:46;;;;;;;27.65;11.52;;;16.50;99.90;;;;;;4947504;28;20049;-82
2023/10/13 17:06:13;;;;;;;35.33;14.18;;;16.50;99.90;;;;;;4980520;28;20155;-88
2023/10/13 17:08:44;;;;;;;28.95;14.63;;;18.30;99.90;;;;;;4969417;28;20060;-84
2023/10/13 17:11:48;;;;;;;32.97;17.15;;;16.60;99.90;;;;;;4972377;28;20057;-83
2023/10/13 17:14:36;;;;;;;35.90;18.63;;;16.50;99.90;;;;;;4971411;28;20148;-85
2023/10/13 17:17:22;;;;;;;29.73;15.93;;;16.50;99.90;;;;;;4983934;28;20260;-83
2023/10/13 17:19:49;;;;;;;41.13;18.48;;;16.50;99.90;;;;;;4994511;28;20045;-81
2023/10/13 17:22:19;;;;;;;36.83;16.38;;;16.50;99.90;;;;;;4986037;28;20054;-86
2023/10/13 17:24:45;;;;;;;31.15;17.25;;;16.50;99.90;;;;;;4993996;28;20085;-81
2023/10/13 17:27:11;;;;;;;32.55;15.82;;;16.50;99.90;;;;;;4998310;28;20049;-87
2023/10/13 17:29:37;;;;;;;25.95;14.23;;;16.50;99.90;;;;;;4996123;28;20049;-83
2023/10/13 17:32:03;;;;;;;32.70;15.52;;;16.50;99.90;;;;;;4998727;28;20046;-84
2023/10/13 17:34:29;;;;;;;30.85;13.25;;;16.50;99.90;;;;;;4995646;28;20481;-85
2023/10/13 17:37:00;;;;;;;24.02;12.82;;;16.50;99.90;;;;;;4989858;28;20111;-84
2023/10/13 17:39:26;;;;;;;19.55;10.38;;;16.40;99.90;;;;;;4981422;28;20115;-83
2023/10/13 17:41:52;;;;;;;25.02;11.02;;;16.40;99.90;;;;;;4981385;28;20049;-75
2023/10/13 17:44:18;;;;;;;23.23;11.55;;;16.40;99.90;;;;;;4991880;28;20491;-79
2023/10/13 17:46:44;;;;;;;22.83;10.50;;;16.40;99.90;;;;;;4998225;28;20053;-78
2023/10/13 17:49:11;;;;;;;25.42;10.73;;;16.50;99.90;;;;;;4991787;28;20508;-80
2023/10/13 17:51:37;;;;;;;26.65;10.93;;;16.50;99.90;;;;;;4996474;28;20045;-83
2023/10/13 17:54:03;;;;;;;22.65;10.77;;;16.60;99.90;;;;;;4975093;28;20456;-83
2023/10/13 17:56:30;;;;;;;24.33;10.27;;;16.60;99.90;;;;;;4983708;28;20091;-81
2023/10/13 17:58:56;;;;;;;24.35;11.32;;;16.60;99.90;;;;;;4993339;28;20041;-78
2023/10/13 18:01:22;;;;;;;20.05;10.38;;;16.70;99.90;;;;;;4967054;28;20085;-84
2023/10/13 18:03:48;;;;;;;20.25;10.05;;;16.70;99.90;;;;;;4973450;28;20872;-78
2023/10/13 18:06:21;;;;;;;24.52;10.95;;;16.70;99.90;;;;;;4991262;28;20061;-84
2023/10/13 18:08:49;;;;;;;21.17;10.50;;;16.70;99.90;;;;;;4984376;28;20049;-85
2023/10/13 18:11:15;;;;;;;27.58;11.60;;;16.70;99.90;;;;;;4990692;28;20152;-79
2023/10/13 18:13:46;;;;;;;20.35;10.68;;;16.70;99.90;;;;;;4987568;28;20053;-81
2023/10/13 18:16:16;;;;;;;27.73;12.95;;;16.70;99.90;;;;;;4979605;28;20057;-77
2023/10/13 18:18:46;;;;;;;24.95;10.85;;;16.70;99.90;;;;;;4986783;28;20049;-78
2023/10/13 18:21:14;;;;;;;28.35;11.75;;;16.70;99.90;;;;;;4997137;28;20053;-81
2023/10/13 18:23:40;;;;;;;27.52;12.45;;;16.70;99.90;;;;;;4989241;28;20049;-81
2023/10/13 18:26:06;;;;;;;33.42;14.02;;;16.70;99.90;;;;;;4996371;28;20057;-83
2023/10/13 18:28:35;;;;;;;22.58;13.50;;;16.70;99.90;;;;;;4991630;28;20111;-80
2023/10/13 18:31:06;;;;;;;31.52;14.70;;;16.70;99.90;;;;;;4994794;28;20540;-81
2023/10/13 18:33:32;;;;;;;29.15;11.82;;;16.60;99.90;;;;;;4991268;28;20127;-83
2023/10/13 18:36:14;;;;;;;26.67;13.13;;;16.70;99.90;;;;;;4997189;28;20080;-85
2023/10/13 18:38:41;;;;;;;27.92;13.57;;;16.70;99.90;;;;;;4999163;28;20049;-82
2023/10/13 18:41:08;;;;;;;23.80;12.02;;;16.60;99.90;;;;;;4991896;28;20052;-80
2023/10/13 18:43:39;;;;;;;25.17;13.93;;;16.70;99.90;;;;;;4995251;28;20081;-82
2023/10/13 18:46:06;;;;;;;28.85;14.75;;;16.60;99.90;;;;;;4996550;28;20787;-78
2023/10/13 18:48:41;;;;;;;24.85;13.32;;;16.60;99.90;;;;;;4996417;28;20053;-77
2023/10/13 18:51:09;;;;;;;26.45;14.55;;;16.60;99.90;;;;;;4992380;28;20877;-78
2023/10/13 18:53:39;;;;;;;36.10;15.45;;;16.60;99.90;;;;;;5011548;28;20057;-84
2023/10/13 18:56:11;;;;;;;33.13;14.85;;;16.60;99.90;;;;;;4996760;28;20530;-83
2023/10/13 18:58:44;;;;;;;44.65;18.10;;;16.60;99.90;;;;;;4998995;28;20463;-83
2023/10/13 19:01:15;;;;;;;36.80;18.15;;;16.60;99.90;;;;;;4996122;28;20053;-82
2023/10/13 19:03:48;;;;;;;42.10;18.42;;;16.60;99.90;;;;;;4995841;28;20441;-86
2023/10/13 19:06:17;;;;;;;35.65;17.10;;;16.60;99.90;;;;;;4992709;28;20772;-83
2023/10/13 19:08:44;;;;;;;37.05;18.30;;;16.60;99.90;;;;;;5000875;28;20289;-84
2023/10/13 19:11:13;;;;;;;38.33;17.05;;;16.50;99.90;;;;;;4980566;28;20900;-80
2023/10/13 19:13:41;;;;;;;40.88;16.38;;;16.50;99.90;;;;;;4996911;28;20049;-83
2023/10/13 19:16:08;;;;;;;33.17;16.30;;;16.50;99.90;;;;;;4968585;28;20046;-85
2023/10/13 19:18:34;;;;;;;40.15;18.60;;;16.50;99.90;;;;;;4992602;28;20114;-84
2023/10/13 19:21:17;;;;;;;46.72;23.85;;;16.50;99.90;;;;;;4980631;28;20053;-84
2023/10/13 19:23:53;;;;;;;41.20;20.83;;;16.50;99.90;;;;;;4985347;28;20061;-84
2023/10/13 19:26:21;;;;;;;40.17;20.02;;;16.50;99.90;;;;;;4994986;28;20108;-79
2023/10/13 19:28:49;;;;;;;33.50;17.38;;;16.40;99.90;;;;;;4997283;28;20053;-85
2023/10/13 19:31:18;;;;;;;33.63;16.75;;;16.40;99.90;;;;;;4997641;28;20112;-83
2023/10/13 19:33:46;;;;;;;35.03;17.88;;;16.40;99.90;;;;;;4998784;28;20725;-81
2023/10/13 19:36:13;;;;;;;29.48;15.50;;;16.40;99.90;;;;;;4995272;28;20060;-85